sensor_id;sensor_type;location;lat;lon;timestamp;pressure;altitude;pressure_sealevel;temperature
68027;BMP180;54819;48.030;14.710;2023-05-10T00:01:35;96984.20;;;10.60
68027;BMP180;54819;48.030;14.710;2023-05-10T00:04:02;96979.00;;;10.50
68027;BMP180;54819;48.030;14.710;2023-05-10T00:06:29;96978.20;;;10.50
68027;BMP180;54819;48.030;14.710;2023-05-10T00:08:56;96973.80;;;10.46
68027;BMP180;54819;48.030;14.710;2023-05-10T00:11:22;96974.40;;;10.40
68027;BMP180;54819;48.030;14.710;2023-05-10T00:13:49;96971.00;;;10.40
68027;BMP180;54819;48.030;14.710;2023-05-10T00:16:16;96967.80;;;10.30
68027;BMP180;54819;48.030;14.710;2023-05-10T00:18:43;96961.60;;;10.30
68027;BMP180;54819;48.030;14.710;2023-05-10T00:21:10;96959.80;;;10.30
68027;BMP180;54819;48.030;14.710;2023-05-10T00:23:36;96959.00;;;10.20
68027;BMP180;54819;48.030;14.710;2023-05-10T00:26:03;96959.00;;;10.20
68027;BMP180;54819;48.030;14.710;2023-05-10T00:28:30;96956.40;;;10.18
68027;BMP180;54819;48.030;14.710;2023-05-10T00:30:57;96956.00;;;10.10
68027;BMP180;54819;48.030;14.710;2023-05-10T00:33:23;96954.60;;;10.10
68027;BMP180;54819;48.030;14.710;2023-05-10T00:35:50;96951.60;;;10.10
68027;BMP180;54819;48.030;14.710;2023-05-10T00:38:17;96951.60;;;10.10
68027;BMP180;54819;48.030;14.710;2023-05-10T00:41:31;96945.80;;;10.08
68027;BMP180;54819;48.030;14.710;2023-05-10T00:44:17;96945.20;;;10.00
68027;BMP180;54819;48.030;14.710;2023-05-10T00:46:45;96953.00;;;10.00
68027;BMP180;54819;48.030;14.710;2023-05-10T00:49:12;96948.20;;;10.00
68027;BMP180;54819;48.030;14.710;2023-05-10T00:51:39;96945.60;;;9.94
68027;BMP180;54819;48.030;14.710;2023-05-10T00:54:06;96943.20;;;9.90
68027;BMP180;54819;48.030;14.710;2023-05-10T00:56:33;96942.80;;;9.90
68027;BMP180;54819;48.030;14.710;2023-05-10T00:59:00;96943.20;;;9.90
68027;BMP180;54819;48.030;14.710;2023-05-10T01:01:28;96948.60;;;9.80
68027;BMP180;54819;48.030;14.710;2023-05-10T01:03:56;96947.60;;;9.80
68027;BMP180;54819;48.030;14.710;2023-05-10T01:06:23;96950.60;;;9.80
68027;BMP180;54819;48.030;14.710;2023-05-10T01:08:50;96953.00;;;9.78
68027;BMP180;54819;48.030;14.710;2023-05-10T01:11:17;96957.80;;;9.70
68027;BMP180;54819;48.030;14.710;2023-05-10T01:13:52;96958.00;;;9.70
68027;BMP180;54819;48.030;14.710;2023-05-10T01:16:23;96961.00;;;9.70
68027;BMP180;54819;48.030;14.710;2023-05-10T01:18:51;96960.80;;;9.70
68027;BMP180;54819;48.030;14.710;2023-05-10T01:21:44;96966.00;;;9.60
68027;BMP180;54819;48.030;14.710;2023-05-10T01:25:23;96972.20;;;9.60
68027;BMP180;54819;48.030;14.710;2023-05-10T01:31:06;96975.00;;;9.60
68027;BMP180;54819;48.030;14.710;2023-05-10T01:34:25;96973.20;;;9.60
68027;BMP180;54819;48.030;14.710;2023-05-10T01:37:31;96977.20;;;9.50
68027;BMP180;54819;48.030;14.710;2023-05-10T01:43:29;96982.20;;;9.48
68027;BMP180;54819;48.030;14.710;2023-05-10T01:46:10;96985.00;;;9.42
68027;BMP180;54819;48.030;14.710;2023-05-10T01:48:48;96987.00;;;9.40
68027;BMP180;54819;48.030;14.710;2023-05-10T01:51:27;96985.20;;;9.40
68027;BMP180;54819;48.030;14.710;2023-05-10T01:54:01;96982.40;;;9.40
68027;BMP180;54819;48.030;14.710;2023-05-10T01:56:32;96986.80;;;9.40
68027;BMP180;54819;48.030;14.710;2023-05-10T01:59:03;96989.20;;;9.30
68027;BMP180;54819;48.030;14.710;2023-05-10T02:01:33;96986.40;;;9.30
68027;BMP180;54819;48.030;14.710;2023-05-10T02:04:01;96984.80;;;9.30
68027;BMP180;54819;48.030;14.710;2023-05-10T02:06:31;96991.80;;;9.30
68027;BMP180;54819;48.030;14.710;2023-05-10T02:09:01;96991.20;;;9.20
68027;BMP180;54819;48.030;14.710;2023-05-10T02:11:31;96997.80;;;9.20
68027;BMP180;54819;48.030;14.710;2023-05-10T02:14:00;96999.60;;;9.20
68027;BMP180;54819;48.030;14.710;2023-05-10T02:16:28;96997.80;;;9.18
68027;BMP180;54819;48.030;14.710;2023-05-10T02:19:01;96998.80;;;9.10
68027;BMP180;54819;48.030;14.710;2023-05-10T02:21:30;96999.60;;;9.10
68027;BMP180;54819;48.030;14.710;2023-05-10T02:23:59;96999.40;;;9.10
68027;BMP180;54819;48.030;14.710;2023-05-10T02:26:29;97001.20;;;9.00
68027;BMP180;54819;48.030;14.710;2023-05-10T02:28:57;96993.60;;;9.00
68027;BMP180;54819;48.030;14.710;2023-05-10T02:31:25;96985.20;;;9.00
68027;BMP180;54819;48.030;14.710;2023-05-10T02:33:54;96989.00;;;8.98
68027;BMP180;54819;48.030;14.710;2023-05-10T02:36:22;96987.60;;;8.90
68027;BMP180;54819;48.030;14.710;2023-05-10T02:38:51;96984.40;;;8.90
68027;BMP180;54819;48.030;14.710;2023-05-10T02:41:23;96989.40;;;8.90
68027;BMP180;54819;48.030;14.710;2023-05-10T02:43:52;96985.40;;;8.90
68027;BMP180;54819;48.030;14.710;2023-05-10T02:46:23;96995.40;;;8.90
68027;BMP180;54819;48.030;14.710;2023-05-10T02:48:50;96992.60;;;8.94
68027;BMP180;54819;48.030;14.710;2023-05-10T02:51:19;96993.00;;;9.00
68027;BMP180;54819;48.030;14.710;2023-05-10T02:53:53;96993.00;;;9.10
68027;BMP180;54819;48.030;14.710;2023-05-10T02:56:25;96984.40;;;9.20
68027;BMP180;54819;48.030;14.710;2023-05-10T02:58:55;96983.20;;;9.30
68027;BMP180;54819;48.030;14.710;2023-05-10T03:01:22;96981.00;;;9.40
68027;BMP180;54819;48.030;14.710;2023-05-10T03:03:49;96980.20;;;9.50
68027;BMP180;54819;48.030;14.710;2023-05-10T03:06:15;96983.40;;;9.60
68027;BMP180;54819;48.030;14.710;2023-05-10T03:08:44;96976.60;;;9.70
68027;BMP180;54819;48.030;14.710;2023-05-10T03:11:43;96980.20;;;9.78
68027;BMP180;54819;48.030;14.710;2023-05-10T03:14:29;96979.40;;;9.86
68027;BMP180;54819;48.030;14.710;2023-05-10T03:17:18;96982.60;;;9.96
68027;BMP180;54819;48.030;14.710;2023-05-10T03:19:58;96994.40;;;10.02
68027;BMP180;54819;48.030;14.710;2023-05-10T03:22:44;96992.00;;;10.10
68027;BMP180;54819;48.030;14.710;2023-05-10T03:25:16;96990.60;;;10.20
68027;BMP180;54819;48.030;14.710;2023-05-10T03:27:44;96986.80;;;10.20
68027;BMP180;54819;48.030;14.710;2023-05-10T03:30:13;96988.60;;;10.30
68027;BMP180;54819;48.030;14.710;2023-05-10T03:32:40;96988.80;;;10.36
68027;BMP180;54819;48.030;14.710;2023-05-10T03:35:09;96987.80;;;10.40
68027;BMP180;54819;48.030;14.710;2023-05-10T03:37:36;96998.40;;;10.50
68027;BMP180;54819;48.030;14.710;2023-05-10T03:40:04;96997.60;;;10.50
68027;BMP180;54819;48.030;14.710;2023-05-10T03:42:32;96997.40;;;10.60
68027;BMP180;54819;48.030;14.710;2023-05-10T03:44:59;97005.00;;;10.60
68027;BMP180;54819;48.030;14.710;2023-05-10T03:47:25;97006.00;;;10.70
68027;BMP180;54819;48.030;14.710;2023-05-10T03:49:52;96997.60;;;10.70
68027;BMP180;54819;48.030;14.710;2023-05-10T03:52:19;97004.00;;;10.78
68027;BMP180;54819;48.030;14.710;2023-05-10T03:54:46;97000.00;;;10.80
68027;BMP180;54819;48.030;14.710;2023-05-10T03:57:13;97001.60;;;10.86
68027;BMP180;54819;48.030;14.710;2023-05-10T03:59:40;97007.20;;;10.90
68027;BMP180;54819;48.030;14.710;2023-05-10T04:02:06;97001.20;;;10.98
68027;BMP180;54819;48.030;14.710;2023-05-10T04:04:33;97000.40;;;11.00
68027;BMP180;54819;48.030;14.710;2023-05-10T04:07:00;96999.60;;;11.00
68027;BMP180;54819;48.030;14.710;2023-05-10T04:09:26;97005.40;;;11.06
68027;BMP180;54819;48.030;14.710;2023-05-10T04:11:53;97005.20;;;11.10
68027;BMP180;54819;48.030;14.710;2023-05-10T04:14:19;97008.00;;;11.10
68027;BMP180;54819;48.030;14.710;2023-05-10T04:16:46;97005.00;;;11.12
68027;BMP180;54819;48.030;14.710;2023-05-10T04:19:13;97006.00;;;11.20
68027;BMP180;54819;48.030;14.710;2023-05-10T04:21:39;97008.20;;;11.20
68027;BMP180;54819;48.030;14.710;2023-05-10T04:24:06;97008.20;;;11.20
68027;BMP180;54819;48.030;14.710;2023-05-10T04:26:33;97009.60;;;11.30
68027;BMP180;54819;48.030;14.710;2023-05-10T04:28:59;97013.20;;;11.30
68027;BMP180;54819;48.030;14.710;2023-05-10T04:31:26;97011.80;;;11.30
68027;BMP180;54819;48.030;14.710;2023-05-10T04:33:54;97010.60;;;11.30
68027;BMP180;54819;48.030;14.710;2023-05-10T04:36:21;97015.00;;;11.30
68027;BMP180;54819;48.030;14.710;2023-05-10T04:38:47;97014.20;;;11.30
68027;BMP180;54819;48.030;14.710;2023-05-10T04:41:14;97014.60;;;11.38
68027;BMP180;54819;48.030;14.710;2023-05-10T04:43:41;97019.40;;;11.40
68027;BMP180;54819;48.030;14.710;2023-05-10T04:46:07;97019.20;;;11.40
68027;BMP180;54819;48.030;14.710;2023-05-10T04:48:34;97020.60;;;11.40
68027;BMP180;54819;48.030;14.710;2023-05-10T04:51:01;97022.00;;;11.40
68027;BMP180;54819;48.030;14.710;2023-05-10T04:53:27;97019.60;;;11.40
68027;BMP180;54819;48.030;14.710;2023-05-10T04:55:54;97019.20;;;11.50
68027;BMP180;54819;48.030;14.710;2023-05-10T04:58:21;97021.80;;;11.50
68027;BMP180;54819;48.030;14.710;2023-05-10T05:00:47;97026.60;;;11.50
68027;BMP180;54819;48.030;14.710;2023-05-10T05:03:14;97025.20;;;11.50
68027;BMP180;54819;48.030;14.710;2023-05-10T05:05:41;97030.40;;;11.50
68027;BMP180;54819;48.030;14.710;2023-05-10T05:08:08;97030.00;;;11.60
68027;BMP180;54819;48.030;14.710;2023-05-10T05:10:35;97030.20;;;11.60
68027;BMP180;54819;48.030;14.710;2023-05-10T05:13:01;97033.60;;;11.68
68027;BMP180;54819;48.030;14.710;2023-05-10T05:15:28;97036.20;;;11.70
68027;BMP180;54819;48.030;14.710;2023-05-10T05:17:56;97032.00;;;11.78
68027;BMP180;54819;48.030;14.710;2023-05-10T05:20:23;97036.00;;;11.80
68027;BMP180;54819;48.030;14.710;2023-05-10T05:22:49;97034.60;;;11.84
68027;BMP180;54819;48.030;14.710;2023-05-10T05:25:16;97042.20;;;11.90
68027;BMP180;54819;48.030;14.710;2023-05-10T05:27:43;97043.40;;;11.90
68027;BMP180;54819;48.030;14.710;2023-05-10T05:30:10;97043.80;;;12.00
68027;BMP180;54819;48.030;14.710;2023-05-10T05:32:37;97040.20;;;12.10
68027;BMP180;54819;48.030;14.710;2023-05-10T05:35:04;97039.20;;;12.20
68027;BMP180;54819;48.030;14.710;2023-05-10T05:37:31;97041.20;;;12.20
68027;BMP180;54819;48.030;14.710;2023-05-10T05:39:57;97041.60;;;12.26
68027;BMP180;54819;48.030;14.710;2023-05-10T05:42:24;97044.20;;;12.30
68027;BMP180;54819;48.030;14.710;2023-05-10T05:44:52;97044.80;;;12.30
68027;BMP180;54819;48.030;14.710;2023-05-10T05:47:18;97047.20;;;12.34
68027;BMP180;54819;48.030;14.710;2023-05-10T05:49:45;97049.40;;;12.38
68027;BMP180;54819;48.030;14.710;2023-05-10T05:52:12;97049.60;;;12.40
68027;BMP180;54819;48.030;14.710;2023-05-10T05:54:39;97048.40;;;12.50
68027;BMP180;54819;48.030;14.710;2023-05-10T05:57:06;97054.60;;;12.50
68027;BMP180;54819;48.030;14.710;2023-05-10T05:59:33;97057.40;;;12.44
68027;BMP180;54819;48.030;14.710;2023-05-10T06:01:59;97059.40;;;12.48
68027;BMP180;54819;48.030;14.710;2023-05-10T06:04:27;97064.20;;;12.50
68027;BMP180;54819;48.030;14.710;2023-05-10T06:06:54;97069.00;;;12.52
68027;BMP180;54819;48.030;14.710;2023-05-10T06:09:20;97075.00;;;12.60
68027;BMP180;54819;48.030;14.710;2023-05-10T06:11:47;97075.00;;;12.62
68027;BMP180;54819;48.030;14.710;2023-05-10T06:14:14;97079.40;;;12.70
68027;BMP180;54819;48.030;14.710;2023-05-10T06:16:41;97081.00;;;12.80
68027;BMP180;54819;48.030;14.710;2023-05-10T06:19:07;97086.20;;;12.90
68027;BMP180;54819;48.030;14.710;2023-05-10T06:21:34;97086.80;;;12.96
68027;BMP180;54819;48.030;14.710;2023-05-10T06:24:01;97091.00;;;13.00
68027;BMP180;54819;48.030;14.710;2023-05-10T06:26:27;97102.80;;;13.10
68027;BMP180;54819;48.030;14.710;2023-05-10T06:28:54;97106.40;;;13.20
68027;BMP180;54819;48.030;14.710;2023-05-10T06:31:21;97114.00;;;13.20
68027;BMP180;54819;48.030;14.710;2023-05-10T06:33:47;97123.00;;;13.30
68027;BMP180;54819;48.030;14.710;2023-05-10T06:36:14;97130.60;;;13.40
68027;BMP180;54819;48.030;14.710;2023-05-10T06:38:41;97129.40;;;13.50
68027;BMP180;54819;48.030;14.710;2023-05-10T06:41:07;97134.60;;;13.70
68027;BMP180;54819;48.030;14.710;2023-05-10T06:43:34;97132.80;;;13.86
68027;BMP180;54819;48.030;14.710;2023-05-10T06:46:01;97134.80;;;14.04
68027;BMP180;54819;48.030;14.710;2023-05-10T06:48:28;97143.00;;;14.20
68027;BMP180;54819;48.030;14.710;2023-05-10T06:50:54;97141.60;;;14.40
68027;BMP180;54819;48.030;14.710;2023-05-10T06:53:21;97135.40;;;14.54
68027;BMP180;54819;48.030;14.710;2023-05-10T06:55:49;97140.80;;;14.64
68027;BMP180;54819;48.030;14.710;2023-05-10T06:58:16;97136.60;;;14.76
68027;BMP180;54819;48.030;14.710;2023-05-10T07:00:43;97136.20;;;14.90
68027;BMP180;54819;48.030;14.710;2023-05-10T07:03:10;97138.00;;;14.80
68027;BMP180;54819;48.030;14.710;2023-05-10T07:05:37;97136.40;;;14.90
68027;BMP180;54819;48.030;14.710;2023-05-10T07:08:04;97134.80;;;14.90
68027;BMP180;54819;48.030;14.710;2023-05-10T07:10:31;97139.60;;;14.90
68027;BMP180;54819;48.030;14.710;2023-05-10T07:12:59;97137.40;;;15.00
68027;BMP180;54819;48.030;14.710;2023-05-10T07:15:26;97135.00;;;15.00
68027;BMP180;54819;48.030;14.710;2023-05-10T07:17:54;97140.40;;;15.10
68027;BMP180;54819;48.030;14.710;2023-05-10T07:20:21;97138.60;;;15.10
68027;BMP180;54819;48.030;14.710;2023-05-10T07:22:47;97141.00;;;15.08
68027;BMP180;54819;48.030;14.710;2023-05-10T07:25:14;97138.20;;;15.10
68027;BMP180;54819;48.030;14.710;2023-05-10T07:27:41;97139.20;;;15.10
68027;BMP180;54819;48.030;14.710;2023-05-10T07:30:08;97140.00;;;15.10
68027;BMP180;54819;48.030;14.710;2023-05-10T07:32:35;97139.60;;;15.00
68027;BMP180;54819;48.030;14.710;2023-05-10T07:35:02;97140.60;;;15.00
68027;BMP180;54819;48.030;14.710;2023-05-10T07:37:29;97137.20;;;14.90
68027;BMP180;54819;48.030;14.710;2023-05-10T07:39:56;97142.20;;;14.82
68027;BMP180;54819;48.030;14.710;2023-05-10T07:42:23;97144.80;;;14.80
68027;BMP180;54819;48.030;14.710;2023-05-10T07:44:49;97144.20;;;14.70
68027;BMP180;54819;48.030;14.710;2023-05-10T07:47:16;97146.60;;;14.78
68027;BMP180;54819;48.030;14.710;2023-05-10T07:49:43;97148.00;;;14.80
68027;BMP180;54819;48.030;14.710;2023-05-10T07:52:10;97150.80;;;14.86
68027;BMP180;54819;48.030;14.710;2023-05-10T07:54:36;97148.80;;;14.90
68027;BMP180;54819;48.030;14.710;2023-05-10T07:57:03;97143.60;;;14.90
68027;BMP180;54819;48.030;14.710;2023-05-10T07:59:30;97145.20;;;15.00
68027;BMP180;54819;48.030;14.710;2023-05-10T08:01:57;97147.00;;;15.00
68027;BMP180;54819;48.030;14.710;2023-05-10T08:04:23;97146.20;;;15.10
68027;BMP180;54819;48.030;14.710;2023-05-10T08:06:50;97147.80;;;15.12
68027;BMP180;54819;48.030;14.710;2023-05-10T08:09:17;97151.40;;;15.12
68027;BMP180;54819;48.030;14.710;2023-05-10T08:11:44;97153.60;;;15.16
68027;BMP180;54819;48.030;14.710;2023-05-10T08:14:10;97152.20;;;15.26
68027;BMP180;54819;48.030;14.710;2023-05-10T08:16:37;97153.20;;;15.40
68027;BMP180;54819;48.030;14.710;2023-05-10T08:19:04;97154.80;;;15.50
68027;BMP180;54819;48.030;14.710;2023-05-10T08:21:31;97152.20;;;15.40
68027;BMP180;54819;48.030;14.710;2023-05-10T08:23:58;97152.20;;;15.50
68027;BMP180;54819;48.030;14.710;2023-05-10T08:26:25;97158.20;;;15.50
68027;BMP180;54819;48.030;14.710;2023-05-10T08:28:52;97159.80;;;15.40
68027;BMP180;54819;48.030;14.710;2023-05-10T08:31:19;97161.80;;;15.32
68027;BMP180;54819;48.030;14.710;2023-05-10T08:33:45;97166.60;;;15.30
68027;BMP180;54819;48.030;14.710;2023-05-10T08:36:12;97164.20;;;15.30
68027;BMP180;54819;48.030;14.710;2023-05-10T08:38:40;97167.60;;;15.30
68027;BMP180;54819;48.030;14.710;2023-05-10T08:41:07;97168.40;;;15.40
68027;BMP180;54819;48.030;14.710;2023-05-10T08:43:35;97168.20;;;15.50
68027;BMP180;54819;48.030;14.710;2023-05-10T08:46:05;97170.80;;;15.60
68027;BMP180;54819;48.030;14.710;2023-05-10T08:48:34;97168.80;;;15.70
68027;BMP180;54819;48.030;14.710;2023-05-10T08:51:03;97165.80;;;15.66
68027;BMP180;54819;48.030;14.710;2023-05-10T08:53:34;97167.40;;;15.66
68027;BMP180;54819;48.030;14.710;2023-05-10T08:56:03;97172.40;;;15.72
68027;BMP180;54819;48.030;14.710;2023-05-10T08:58:30;97166.80;;;15.84
68027;BMP180;54819;48.030;14.710;2023-05-10T09:00:58;97169.80;;;15.90
68027;BMP180;54819;48.030;14.710;2023-05-10T09:03:25;97176.00;;;15.80
68027;BMP180;54819;48.030;14.710;2023-05-10T09:05:53;97173.80;;;15.86
68027;BMP180;54819;48.030;14.710;2023-05-10T09:08:20;97170.80;;;15.94
68027;BMP180;54819;48.030;14.710;2023-05-10T09:10:48;97176.80;;;15.90
68027;BMP180;54819;48.030;14.710;2023-05-10T09:13:16;97178.60;;;15.90
68027;BMP180;54819;48.030;14.710;2023-05-10T09:15:44;97180.00;;;15.90
68027;BMP180;54819;48.030;14.710;2023-05-10T09:18:12;97176.40;;;15.80
68027;BMP180;54819;48.030;14.710;2023-05-10T09:20:40;97179.40;;;15.90
68027;BMP180;54819;48.030;14.710;2023-05-10T09:23:07;97182.20;;;16.00
68027;BMP180;54819;48.030;14.710;2023-05-10T09:25:34;97182.40;;;16.00
68027;BMP180;54819;48.030;14.710;2023-05-10T09:28:01;97181.80;;;16.10
68027;BMP180;54819;48.030;14.710;2023-05-10T09:30:30;97184.60;;;16.10
68027;BMP180;54819;48.030;14.710;2023-05-10T09:32:59;97185.40;;;16.16
68027;BMP180;54819;48.030;14.710;2023-05-10T09:35:29;97184.20;;;16.20
68027;BMP180;54819;48.030;14.710;2023-05-10T09:38:03;97188.40;;;16.26
68027;BMP180;54819;48.030;14.710;2023-05-10T09:40:30;97186.20;;;16.26
68027;BMP180;54819;48.030;14.710;2023-05-10T09:43:07;97182.80;;;16.30
68027;BMP180;54819;48.030;14.710;2023-05-10T09:45:35;97181.80;;;16.40
68027;BMP180;54819;48.030;14.710;2023-05-10T09:48:05;97178.80;;;16.52
68027;BMP180;54819;48.030;14.710;2023-05-10T09:50:32;97179.60;;;16.70
68027;BMP180;54819;48.030;14.710;2023-05-10T09:53:03;97174.60;;;17.00
68027;BMP180;54819;48.030;14.710;2023-05-10T09:55:46;97176.80;;;17.24
68027;BMP180;54819;48.030;14.710;2023-05-10T09:58:13;97175.60;;;17.54
68027;BMP180;54819;48.030;14.710;2023-05-10T10:00:42;97172.80;;;17.72
68027;BMP180;54819;48.030;14.710;2023-05-10T10:03:19;97171.60;;;18.04
68027;BMP180;54819;48.030;14.710;2023-05-10T10:05:48;97168.60;;;18.20
68027;BMP180;54819;48.030;14.710;2023-05-10T10:08:17;97167.60;;;18.34
68027;BMP180;54819;48.030;14.710;2023-05-10T10:10:44;97165.20;;;18.54
68027;BMP180;54819;48.030;14.710;2023-05-10T10:13:13;97166.00;;;18.80
68027;BMP180;54819;48.030;14.710;2023-05-10T10:15:42;97161.40;;;19.00
68027;BMP180;54819;48.030;14.710;2023-05-10T10:18:13;97169.00;;;19.20
68027;BMP180;54819;48.030;14.710;2023-05-10T10:20:42;97162.40;;;19.30
68027;BMP180;54819;48.030;14.710;2023-05-10T10:23:09;97166.40;;;19.40
68027;BMP180;54819;48.030;14.710;2023-05-10T10:25:38;97162.80;;;19.50
68027;BMP180;54819;48.030;14.710;2023-05-10T10:28:24;97156.60;;;19.60
68027;BMP180;54819;48.030;14.710;2023-05-10T10:30:55;97158.20;;;19.68
68027;BMP180;54819;48.030;14.710;2023-05-10T10:34:11;97154.40;;;19.70
68027;BMP180;54819;48.030;14.710;2023-05-10T10:36:46;97157.80;;;19.80
68027;BMP180;54819;48.030;14.710;2023-05-10T10:39:14;97156.60;;;19.80
68027;BMP180;54819;48.030;14.710;2023-05-10T10:41:56;97155.80;;;19.80
68027;BMP180;54819;48.030;14.710;2023-05-10T10:52:39;97152.60;;;19.90
68027;BMP180;54819;48.030;14.710;2023-05-10T10:57:44;97152.80;;;19.90
68027;BMP180;54819;48.030;14.710;2023-05-10T11:00:30;97149.80;;;20.00
68027;BMP180;54819;48.030;14.710;2023-05-10T11:03:06;97152.40;;;20.10
68027;BMP180;54819;48.030;14.710;2023-05-10T11:05:45;97147.00;;;20.12
68027;BMP180;54819;48.030;14.710;2023-05-10T11:08:20;97150.20;;;20.20
68027;BMP180;54819;48.030;14.710;2023-05-10T11:13:44;97151.80;;;20.30
68027;BMP180;54819;48.030;14.710;2023-05-10T11:16:25;97152.40;;;20.46
68027;BMP180;54819;48.030;14.710;2023-05-10T11:19:07;97152.00;;;20.50
68027;BMP180;54819;48.030;14.710;2023-05-10T11:21:48;97154.80;;;20.30
68027;BMP180;54819;48.030;14.710;2023-05-10T11:24:22;97153.00;;;20.34
68027;BMP180;54819;48.030;14.710;2023-05-10T11:26:53;97159.40;;;20.40
68027;BMP180;54819;48.030;14.710;2023-05-10T11:29:20;97157.20;;;20.40
68027;BMP180;54819;48.030;14.710;2023-05-10T11:31:48;97158.20;;;20.50
68027;BMP180;54819;48.030;14.710;2023-05-10T11:34:30;97157.80;;;20.64
68027;BMP180;54819;48.030;14.710;2023-05-10T11:37:00;97165.00;;;20.80
68027;BMP180;54819;48.030;14.710;2023-05-10T11:39:29;97166.60;;;20.90
68027;BMP180;54819;48.030;14.710;2023-05-10T11:41:59;97166.60;;;20.84
68027;BMP180;54819;48.030;14.710;2023-05-10T11:44:32;97172.00;;;20.80
68027;BMP180;54819;48.030;14.710;2023-05-10T11:47:01;97172.80;;;20.74
68027;BMP180;54819;48.030;14.710;2023-05-10T11:49:28;97170.60;;;20.60
68027;BMP180;54819;48.030;14.710;2023-05-10T11:52:12;97171.60;;;20.60
68027;BMP180;54819;48.030;14.710;2023-05-10T11:54:53;97175.20;;;20.68
68027;BMP180;54819;48.030;14.710;2023-05-10T11:57:26;97175.80;;;20.60
68027;BMP180;54819;48.030;14.710;2023-05-10T11:59:54;97177.80;;;20.42
68027;BMP180;54819;48.030;14.710;2023-05-10T12:02:21;97179.40;;;20.30
68027;BMP180;54819;48.030;14.710;2023-05-10T12:04:50;97177.40;;;20.20
68027;BMP180;54819;48.030;14.710;2023-05-10T12:07:17;97178.80;;;20.20
68027;BMP180;54819;48.030;14.710;2023-05-10T12:09:44;97172.20;;;20.08
68027;BMP180;54819;48.030;14.710;2023-05-10T12:12:16;97177.20;;;19.98
68027;BMP180;54819;48.030;14.710;2023-05-10T12:14:43;97180.60;;;20.10
68027;BMP180;54819;48.030;14.710;2023-05-10T12:17:12;97180.60;;;20.20
68027;BMP180;54819;48.030;14.710;2023-05-10T12:19:41;97183.80;;;20.30
68027;BMP180;54819;48.030;14.710;2023-05-10T12:22:07;97185.00;;;20.50
68027;BMP180;54819;48.030;14.710;2023-05-10T12:24:36;97185.40;;;20.40
68027;BMP180;54819;48.030;14.710;2023-05-10T12:27:05;97189.60;;;20.20
68027;BMP180;54819;48.030;14.710;2023-05-10T12:29:34;97194.00;;;20.10
68027;BMP180;54819;48.030;14.710;2023-05-10T12:32:02;97193.20;;;19.90
68027;BMP180;54819;48.030;14.710;2023-05-10T12:34:35;97194.40;;;19.70
68027;BMP180;54819;48.030;14.710;2023-05-10T12:37:05;97197.80;;;19.60
68027;BMP180;54819;48.030;14.710;2023-05-10T12:39:44;97200.40;;;19.56
68027;BMP180;54819;48.030;14.710;2023-05-10T12:42:11;97203.00;;;19.50
68027;BMP180;54819;48.030;14.710;2023-05-10T12:44:39;97203.40;;;19.54
68027;BMP180;54819;48.030;14.710;2023-05-10T12:47:06;97205.00;;;19.56
68027;BMP180;54819;48.030;14.710;2023-05-10T12:49:33;97200.60;;;19.64
68027;BMP180;54819;48.030;14.710;2023-05-10T12:52:00;97201.80;;;19.72
68027;BMP180;54819;48.030;14.710;2023-05-10T12:54:27;97196.80;;;19.76
68027;BMP180;54819;48.030;14.710;2023-05-10T12:56:54;97200.80;;;19.80
68027;BMP180;54819;48.030;14.710;2023-05-10T12:59:21;97198.60;;;19.86
68027;BMP180;54819;48.030;14.710;2023-05-10T13:01:49;97198.20;;;19.88
68027;BMP180;54819;48.030;14.710;2023-05-10T13:04:16;97192.00;;;19.86
68027;BMP180;54819;48.030;14.710;2023-05-10T13:06:42;97194.20;;;19.80
68027;BMP180;54819;48.030;14.710;2023-05-10T13:09:09;97199.20;;;19.90
68027;BMP180;54819;48.030;14.710;2023-05-10T13:11:36;97200.40;;;19.96
68027;BMP180;54819;48.030;14.710;2023-05-10T13:14:03;97197.80;;;20.00
68027;BMP180;54819;48.030;14.710;2023-05-10T13:16:30;97195.80;;;20.10
68027;BMP180;54819;48.030;14.710;2023-05-10T13:18:57;97201.20;;;20.10
68027;BMP180;54819;48.030;14.710;2023-05-10T13:21:25;97199.00;;;20.10
68027;BMP180;54819;48.030;14.710;2023-05-10T13:23:52;97198.20;;;20.10
68027;BMP180;54819;48.030;14.710;2023-05-10T13:26:19;97196.60;;;20.10
68027;BMP180;54819;48.030;14.710;2023-05-10T13:28:46;97195.20;;;20.12
68027;BMP180;54819;48.030;14.710;2023-05-10T13:31:13;97192.20;;;20.04
68027;BMP180;54819;48.030;14.710;2023-05-10T13:33:39;97198.20;;;20.00
68027;BMP180;54819;48.030;14.710;2023-05-10T13:36:06;97195.80;;;20.00
68027;BMP180;54819;48.030;14.710;2023-05-10T13:38:33;97193.40;;;19.94
68027;BMP180;54819;48.030;14.710;2023-05-10T13:41:00;97194.00;;;19.90
68027;BMP180;54819;48.030;14.710;2023-05-10T13:43:26;97192.60;;;19.80
68027;BMP180;54819;48.030;14.710;2023-05-10T13:45:53;97191.20;;;19.80
68027;BMP180;54819;48.030;14.710;2023-05-10T13:48:20;97184.40;;;19.70
68027;BMP180;54819;48.030;14.710;2023-05-10T13:50:47;97188.80;;;19.60
68027;BMP180;54819;48.030;14.710;2023-05-10T13:53:14;97191.20;;;19.50
68027;BMP180;54819;48.030;14.710;2023-05-10T13:55:41;97192.00;;;19.30
68027;BMP180;54819;48.030;14.710;2023-05-10T13:58:07;97189.60;;;19.20
68027;BMP180;54819;48.030;14.710;2023-05-10T14:00:34;97189.60;;;19.20
68027;BMP180;54819;48.030;14.710;2023-05-10T14:03:00;97193.40;;;19.10
68027;BMP180;54819;48.030;14.710;2023-05-10T14:05:27;97191.60;;;19.00
68027;BMP180;54819;48.030;14.710;2023-05-10T14:07:54;97190.20;;;18.90
68027;BMP180;54819;48.030;14.710;2023-05-10T14:10:21;97191.00;;;18.80
68027;BMP180;54819;48.030;14.710;2023-05-10T14:12:49;97190.20;;;18.72
68027;BMP180;54819;48.030;14.710;2023-05-10T14:15:15;97189.40;;;18.76
68027;BMP180;54819;48.030;14.710;2023-05-10T14:17:43;97182.60;;;18.80
68027;BMP180;54819;48.030;14.710;2023-05-10T14:20:11;97184.20;;;18.90
68027;BMP180;54819;48.030;14.710;2023-05-10T14:22:37;97182.20;;;18.96
68027;BMP180;54819;48.030;14.710;2023-05-10T14:25:05;97179.40;;;18.90
68027;BMP180;54819;48.030;14.710;2023-05-10T14:27:31;97180.40;;;18.98
68027;BMP180;54819;48.030;14.710;2023-05-10T14:29:58;97177.60;;;18.90
68027;BMP180;54819;48.030;14.710;2023-05-10T14:32:25;97176.00;;;18.90